createdAt,value
2018-01-04T00:00:23.656Z,996.41
2018-01-04T00:01:23.642Z,996.35
2018-01-04T00:02:23.641Z,996.37
2018-01-04T00:03:23.631Z,996.43
2018-01-04T00:04:23.641Z,996.40
2018-01-04T00:05:23.633Z,996.39
2018-01-04T00:06:23.636Z,996.37
2018-01-04T00:07:23.638Z,996.42
2018-01-04T00:08:23.621Z,996.43
2018-01-04T00:09:23.620Z,996.37
2018-01-04T00:10:23.619Z,996.35
2018-01-04T00:11:23.615Z,996.34
2018-01-04T00:12:23.621Z,996.33
2018-01-04T00:13:23.601Z,996.34
2018-01-04T00:14:23.612Z,996.37
2018-01-04T00:15:23.606Z,996.36
2018-01-04T00:16:23.605Z,996.34
2018-01-04T00:17:23.600Z,996.39
2018-01-04T00:18:23.601Z,996.36
2018-01-04T00:19:23.597Z,996.37
2018-01-04T00:20:23.595Z,996.39
2018-01-04T00:21:23.605Z,996.43
2018-01-04T00:22:23.584Z,996.43
2018-01-04T00:23:23.589Z,996.42
2018-01-04T00:24:23.595Z,996.42
2018-01-04T00:25:23.585Z,996.42
2018-01-04T00:26:23.599Z,996.40
2018-01-04T00:27:23.591Z,996.36
2018-01-04T00:28:23.603Z,996.41
2018-01-04T00:29:23.586Z,996.33
2018-01-04T00:30:23.563Z,996.43
2018-01-04T00:31:23.567Z,996.47
2018-01-04T00:32:23.575Z,996.40
2018-01-04T00:33:23.560Z,996.45
2018-01-04T00:34:23.566Z,996.33
2018-01-04T00:35:23.564Z,996.31
2018-01-04T00:36:23.564Z,996.41
2018-01-04T00:37:23.560Z,996.34
2018-01-04T00:38:23.546Z,996.37
2018-01-04T00:39:23.536Z,996.37
2018-01-04T00:40:23.549Z,996.43
2018-01-04T00:41:23.546Z,996.37
2018-01-04T00:42:23.543Z,996.34
2018-01-04T00:43:23.560Z,996.36
2018-01-04T00:44:23.536Z,996.28
2018-01-04T00:45:23.543Z,996.32
2018-01-04T00:46:23.533Z,996.32
2018-01-04T00:47:23.546Z,996.31
2018-01-04T00:48:23.534Z,996.41
2018-01-04T00:49:23.545Z,996.35
2018-01-04T00:50:23.522Z,996.30
2018-01-04T00:51:23.518Z,996.32
2018-01-04T00:52:23.517Z,996.31
2018-01-04T00:53:23.511Z,996.23
2018-01-04T00:54:23.515Z,996.22
2018-01-04T00:55:23.511Z,996.21
2018-01-04T00:56:23.520Z,996.16
2018-01-04T00:57:23.517Z,996.14
2018-01-04T00:58:23.505Z,996.22
2018-01-04T00:59:23.542Z,996.13
2018-01-04T01:00:23.511Z,996.14
2018-01-04T01:01:23.491Z,996.05
2018-01-04T01:02:23.506Z,996.14
2018-01-04T01:03:23.538Z,996.10
2018-01-04T01:04:23.494Z,996.14
2018-01-04T01:05:23.483Z,996.12
2018-01-04T01:06:23.486Z,996.09
2018-01-04T01:07:23.494Z,996.09
2018-01-04T01:08:23.492Z,996.01
2018-01-04T01:09:23.480Z,996.11
2018-01-04T01:10:23.497Z,996.12
2018-01-04T01:11:23.468Z,996.21
2018-01-04T01:12:23.492Z,996.16
2018-01-04T01:13:23.465Z,996.20
2018-01-04T01:14:23.471Z,996.11
2018-01-04T01:15:23.461Z,996.13
2018-01-04T01:16:23.468Z,996.06
2018-01-04T01:17:23.469Z,996.13
2018-01-04T01:18:23.461Z,996.11
2018-01-04T01:19:23.451Z,996.13
2018-01-04T01:20:23.446Z,996.16
2018-01-04T01:21:23.447Z,996.18
2018-01-04T01:22:23.441Z,996.24
2018-01-04T01:23:23.450Z,996.26
2018-01-04T01:24:23.440Z,996.19
2018-01-04T01:25:23.441Z,996.25
2018-01-04T01:26:23.436Z,996.34
2018-01-04T01:27:23.440Z,996.40
2018-01-04T01:28:23.453Z,996.31
2018-01-04T01:29:23.422Z,996.31
2018-01-04T01:30:23.427Z,996.27
2018-01-04T01:31:23.432Z,996.32
2018-01-04T01:32:23.417Z,996.29
2018-01-04T01:33:23.426Z,996.25
2018-01-04T01:34:23.406Z,996.24
2018-01-04T01:35:23.415Z,996.24
2018-01-04T01:36:23.402Z,996.30
2018-01-04T01:37:23.409Z,996.26
2018-01-04T01:38:23.414Z,996.25
2018-01-04T01:39:23.404Z,996.26
2018-01-04T01:40:23.402Z,996.26
2018-01-04T01:41:23.391Z,996.22
2018-01-04T01:42:23.397Z,996.34
2018-01-04T01:43:23.389Z,996.30
2018-01-04T01:44:23.390Z,996.25
2018-01-04T01:45:23.402Z,996.27
2018-01-04T01:46:23.391Z,996.29
2018-01-04T01:47:23.377Z,996.27
2018-01-04T01:48:23.381Z,996.25
2018-01-04T01:49:23.383Z,996.23
2018-01-04T01:50:23.387Z,996.34
2018-01-04T01:51:23.376Z,996.37
2018-01-04T01:52:23.363Z,996.39
2018-01-04T01:53:23.372Z,996.39
2018-01-04T01:54:23.363Z,996.41
2018-01-04T01:55:23.363Z,996.35
2018-01-04T01:56:23.365Z,996.30
2018-01-04T01:57:23.357Z,996.39
2018-01-04T01:58:23.358Z,996.36
2018-01-04T01:59:23.359Z,996.42
2018-01-04T02:00:23.356Z,996.39
2018-01-04T02:01:23.347Z,996.38
2018-01-04T02:02:23.354Z,996.40
2018-01-04T02:03:23.342Z,996.38
2018-01-04T02:04:23.333Z,996.44
2018-01-04T02:05:23.338Z,996.43
2018-01-04T02:06:23.332Z,996.43
2018-01-04T02:07:23.337Z,996.40
2018-01-04T02:08:23.340Z,996.45
2018-01-04T02:09:23.329Z,996.47
2018-01-04T02:10:23.321Z,996.36
2018-01-04T02:11:23.320Z,996.39
2018-01-04T02:12:23.309Z,996.40
2018-01-04T02:13:23.312Z,996.44
2018-01-04T02:14:23.311Z,996.36
2018-01-04T02:15:23.313Z,996.43
2018-01-04T02:16:23.319Z,996.37
2018-01-04T02:17:23.346Z,996.39
2018-01-04T02:18:23.298Z,996.38
2018-01-04T02:19:23.302Z,996.38
2018-01-04T02:20:23.296Z,996.37
2018-01-04T02:21:23.293Z,996.38
2018-01-04T02:22:23.291Z,996.36
2018-01-04T02:23:23.288Z,996.43
2018-01-04T02:24:23.318Z,996.38
2018-01-04T02:25:23.286Z,996.29
2018-01-04T02:26:23.289Z,996.25
2018-01-04T02:27:23.278Z,996.18
2018-01-04T02:28:23.273Z,996.26
2018-01-04T02:29:23.273Z,996.40
2018-01-04T02:30:23.278Z,996.36
2018-01-04T02:31:23.281Z,996.40
2018-01-04T02:32:23.269Z,996.38
2018-01-04T02:33:23.293Z,996.38
2018-01-04T02:34:23.264Z,996.32
2018-01-04T02:35:23.262Z,996.35
2018-01-04T02:36:23.297Z,996.33
2018-01-04T02:37:23.253Z,996.28
2018-01-04T02:38:23.246Z,996.28
2018-01-04T02:39:23.245Z,996.36
2018-01-04T02:40:23.245Z,996.29
2018-01-04T02:41:23.256Z,996.30
2018-01-04T02:42:23.248Z,996.35
2018-01-04T02:43:23.244Z,996.29
2018-01-04T02:44:23.241Z,996.32
2018-01-04T02:45:23.237Z,996.36
2018-01-04T02:46:23.230Z,996.26
2018-01-04T02:47:23.226Z,996.32
2018-01-04T02:48:23.233Z,996.27
2018-01-04T02:49:23.227Z,996.27
2018-01-04T02:50:23.224Z,996.28
2018-01-04T02:51:23.224Z,996.28
2018-01-04T02:52:23.223Z,996.28
2018-01-04T02:53:23.214Z,996.21
2018-01-04T02:54:23.233Z,996.33
2018-01-04T02:55:23.202Z,996.25
2018-01-04T02:56:23.213Z,996.27
2018-01-04T02:57:23.205Z,996.26
2018-01-04T02:58:23.207Z,996.26
2018-01-04T02:59:23.196Z,996.23
2018-01-04T03:00:23.197Z,996.24
2018-01-04T03:01:23.212Z,996.15
2018-01-04T03:02:23.195Z,996.23
2018-01-04T03:03:23.188Z,996.29
2018-01-04T03:04:23.194Z,996.20
2018-01-04T03:05:23.189Z,996.22
2018-01-04T03:06:23.190Z,996.20
2018-01-04T03:07:23.181Z,996.15
2018-01-04T03:08:23.177Z,996.27
2018-01-04T03:09:23.214Z,996.27
2018-01-04T03:10:23.186Z,996.32
2018-01-04T03:11:23.162Z,996.24
2018-01-04T03:12:23.172Z,996.20
2018-01-04T03:13:23.170Z,996.16
2018-01-04T03:14:23.165Z,996.05
2018-01-04T03:15:23.167Z,996.15
2018-01-04T03:16:23.155Z,996.10
2018-01-04T03:17:23.158Z,996.03
2018-01-04T03:18:23.144Z,996.08
2018-01-04T03:19:23.150Z,996.13
2018-01-04T03:20:23.164Z,996.18
2018-01-04T03:21:23.151Z,996.18
2018-01-04T03:22:23.142Z,996.17
2018-01-04T03:23:23.147Z,996.15
2018-01-04T03:24:23.143Z,996.16
2018-01-04T03:25:23.132Z,996.19
2018-01-04T03:26:23.133Z,996.18
2018-01-04T03:27:23.133Z,996.18
2018-01-04T03:28:23.127Z,996.20
2018-01-04T03:29:23.128Z,996.22
2018-01-04T03:30:23.128Z,996.19
2018-01-04T03:31:23.128Z,996.28
2018-01-04T03:32:23.128Z,996.25
2018-01-04T03:33:23.113Z,996.25
2018-01-04T03:34:23.125Z,996.23
2018-01-04T03:35:23.120Z,996.24
2018-01-04T03:36:23.109Z,996.32
2018-01-04T03:37:23.104Z,996.33
2018-01-04T03:38:23.104Z,996.32
2018-01-04T03:39:23.097Z,996.34
2018-01-04T03:40:23.101Z,996.41
2018-01-04T03:41:23.102Z,996.40
2018-01-04T03:42:23.097Z,996.48
2018-01-04T03:43:23.092Z,996.45
2018-01-04T03:44:23.085Z,996.44
2018-01-04T03:45:23.093Z,996.45
2018-01-04T03:46:23.079Z,996.36
2018-01-04T03:47:23.080Z,996.34
2018-01-04T03:48:23.073Z,996.27
2018-01-04T03:49:23.078Z,996.28
2018-01-04T03:50:23.071Z,996.27
2018-01-04T03:51:23.085Z,996.28
2018-01-04T03:52:23.071Z,996.28
2018-01-04T03:53:23.074Z,996.24
2018-01-04T03:54:23.069Z,996.16
2018-01-04T03:55:23.060Z,996.22
2018-01-04T03:56:23.060Z,996.21
2018-01-04T03:57:23.055Z,996.17
2018-01-04T03:58:23.073Z,996.17
2018-01-04T03:59:23.051Z,996.15
2018-01-04T04:00:23.051Z,996.11
2018-01-04T04:01:23.041Z,996.15
2018-01-04T04:02:23.039Z,996.12
2018-01-04T04:03:23.030Z,996.14
2018-01-04T04:04:23.038Z,996.08
2018-01-04T04:05:23.034Z,996.11
2018-01-04T04:06:23.026Z,996.08
2018-01-04T04:07:23.038Z,996.13
2018-01-04T04:08:23.018Z,996.17
2018-01-04T04:09:23.022Z,996.15
2018-01-04T04:10:23.023Z,996.18
2018-01-04T04:11:23.013Z,996.31
2018-01-04T04:12:23.015Z,996.33
2018-01-04T04:13:23.014Z,996.36
2018-01-04T04:14:23.010Z,996.31
2018-01-04T04:15:23.000Z,996.30
2018-01-04T04:16:23.012Z,996.37
2018-01-04T04:17:23.009Z,996.40
2018-01-04T04:18:22.999Z,996.36
2018-01-04T04:19:22.998Z,996.33
2018-01-04T04:20:22.993Z,996.34
2018-01-04T04:21:22.991Z,996.30
2018-01-04T04:22:22.993Z,996.36
2018-01-04T04:23:22.984Z,996.32
2018-01-04T04:24:22.986Z,996.36
2018-01-04T04:25:22.983Z,996.36
2018-01-04T04:26:22.982Z,996.32
2018-01-04T04:27:22.979Z,996.31
2018-01-04T04:28:22.973Z,996.28
2018-01-04T04:29:22.966Z,996.20
2018-01-04T04:30:22.971Z,996.23
2018-01-04T04:31:22.970Z,996.27
2018-01-04T04:32:22.969Z,996.25
2018-01-04T04:33:22.959Z,996.22
2018-01-04T04:34:22.973Z,996.20
2018-01-04T04:35:22.954Z,996.21
2018-01-04T04:36:22.959Z,996.19
2018-01-04T04:37:22.948Z,996.20
2018-01-04T04:38:22.950Z,996.20
2018-01-04T04:39:22.939Z,996.24
2018-01-04T04:40:22.935Z,996.24
2018-01-04T04:41:22.941Z,996.27
2018-01-04T04:42:22.934Z,996.26
2018-01-04T04:43:22.933Z,996.22
2018-01-04T04:44:22.940Z,996.25
2018-01-04T04:45:22.928Z,996.20
2018-01-04T04:46:22.927Z,996.18
2018-01-04T04:47:22.929Z,996.24
2018-01-04T04:48:22.931Z,996.18
2018-01-04T04:49:22.912Z,996.22
2018-01-04T04:50:22.921Z,996.17
2018-01-04T04:51:22.919Z,996.20
2018-01-04T04:52:22.918Z,996.21
2018-01-04T04:53:22.916Z,996.16
2018-01-04T04:54:22.896Z,996.16
2018-01-04T04:55:22.925Z,996.19
2018-01-04T04:56:22.909Z,996.17
2018-01-04T04:57:22.899Z,996.15
2018-01-04T04:58:22.902Z,996.12
2018-01-04T04:59:22.900Z,996.03
2018-01-04T05:00:22.919Z,996.03
2018-01-04T05:01:22.918Z,996.01
2018-01-04T05:02:22.885Z,995.96
2018-01-04T05:03:22.901Z,995.90
2018-01-04T05:04:22.893Z,995.93
2018-01-04T05:05:22.886Z,995.95
2018-01-04T05:06:22.900Z,995.93
2018-01-04T05:07:22.922Z,995.90
2018-01-04T05:08:22.889Z,995.84
2018-01-04T05:09:22.891Z,995.77
2018-01-04T05:10:22.885Z,995.87
2018-01-04T05:11:22.887Z,995.88
2018-01-04T05:12:22.885Z,995.95
2018-01-04T05:13:22.892Z,995.86
2018-01-04T05:14:22.886Z,995.91
2018-01-04T05:15:22.881Z,995.95
2018-01-04T05:16:22.884Z,995.94
2018-01-04T05:17:22.890Z,995.96
2018-01-04T05:18:22.886Z,995.97
2018-01-04T05:19:22.869Z,996.01
2018-01-04T05:20:22.885Z,996.04
2018-01-04T05:21:22.881Z,996.03
2018-01-04T05:22:22.880Z,996.03
2018-01-04T05:23:22.880Z,996.06
2018-01-04T05:24:22.867Z,996.04
2018-01-04T05:25:22.871Z,995.98
2018-01-04T05:26:22.876Z,995.92
2018-01-04T05:27:22.872Z,995.89
2018-01-04T05:28:22.865Z,995.86
2018-01-04T05:29:22.869Z,995.86
2018-01-04T05:30:22.891Z,995.79
2018-01-04T05:31:22.881Z,995.81
2018-01-04T05:32:22.856Z,995.85
2018-01-04T05:33:22.859Z,995.89
2018-01-04T05:34:22.861Z,995.86
2018-01-04T05:35:22.860Z,995.76
2018-01-04T05:36:22.858Z,995.73
2018-01-04T05:37:22.866Z,995.61
2018-01-04T05:38:22.859Z,995.55
2018-01-04T05:39:22.882Z,995.45
2018-01-04T05:40:22.861Z,995.42
2018-01-04T05:41:22.856Z,995.38
2018-01-04T05:42:22.850Z,995.40
2018-01-04T05:43:22.860Z,995.43
2018-01-04T05:44:22.847Z,995.48
2018-01-04T05:45:22.836Z,995.42
2018-01-04T05:46:22.849Z,995.44
2018-01-04T05:47:22.845Z,995.47
2018-01-04T05:48:22.848Z,995.51
2018-01-04T05:49:22.845Z,995.53
2018-01-04T05:50:22.841Z,995.62
2018-01-04T05:51:22.842Z,995.59
2018-01-04T05:52:22.845Z,995.71
2018-01-04T05:53:22.832Z,995.79
2018-01-04T05:54:22.846Z,995.72
2018-01-04T05:55:22.839Z,995.77
2018-01-04T05:56:22.837Z,995.77
2018-01-04T05:57:22.836Z,995.73
2018-01-04T05:58:22.828Z,995.75
2018-01-04T05:59:22.841Z,995.76
2018-01-04T06:00:22.836Z,995.74
2018-01-04T06:01:22.823Z,995.72
2018-01-04T06:02:22.836Z,995.75
2018-01-04T06:03:22.842Z,995.78
2018-01-04T06:04:22.821Z,995.77
2018-01-04T06:05:22.833Z,995.80
2018-01-04T06:06:22.825Z,995.75
2018-01-04T06:07:22.819Z,995.76
2018-01-04T06:08:22.823Z,995.74
2018-01-04T06:09:22.824Z,995.72
2018-01-04T06:10:22.831Z,995.72
2018-01-04T06:11:22.822Z,995.72
2018-01-04T06:12:22.831Z,995.72
2018-01-04T06:13:22.815Z,995.70
2018-01-04T06:14:22.821Z,995.62
2018-01-04T06:15:22.824Z,995.56
2018-01-04T06:16:22.810Z,995.51
2018-01-04T06:17:22.811Z,995.50
2018-01-04T06:18:22.810Z,995.49
2018-01-04T06:19:22.812Z,995.48
2018-01-04T06:20:22.810Z,995.42
2018-01-04T06:21:22.805Z,995.42
2018-01-04T06:22:22.805Z,995.41
2018-01-04T06:23:22.811Z,995.42
2018-01-04T06:24:22.813Z,995.44
2018-01-04T06:25:22.809Z,995.46
2018-01-04T06:26:22.789Z,995.39
2018-01-04T06:27:22.798Z,995.33
2018-01-04T06:28:22.798Z,995.35
2018-01-04T06:29:22.798Z,995.39
2018-01-04T06:30:22.797Z,995.35
2018-01-04T06:31:22.796Z,995.36
2018-01-04T06:32:22.798Z,995.34
2018-01-04T06:33:22.786Z,995.33
2018-01-04T06:34:22.789Z,995.29
2018-01-04T06:35:22.781Z,995.32
2018-01-04T06:36:22.809Z,995.34
2018-01-04T06:37:22.783Z,995.38
2018-01-04T06:38:22.784Z,995.36
2018-01-04T06:39:22.783Z,995.37
2018-01-04T06:40:22.791Z,995.35
2018-01-04T06:41:22.793Z,995.31
2018-01-04T06:42:22.798Z,995.29
2018-01-04T06:43:22.779Z,995.29
2018-01-04T06:44:22.785Z,995.27
2018-01-04T06:45:22.782Z,995.30
2018-01-04T06:46:22.781Z,995.32
2018-01-04T06:47:22.772Z,995.30
2018-01-04T06:48:22.779Z,995.28
2018-01-04T06:49:22.778Z,995.24
2018-01-04T06:50:22.772Z,995.22
2018-01-04T06:51:22.773Z,995.25
2018-01-04T06:52:22.771Z,995.27
2018-01-04T06:53:22.763Z,995.27
2018-01-04T06:54:22.770Z,995.26
2018-01-04T06:55:22.764Z,995.21
2018-01-04T06:56:22.767Z,995.20
2018-01-04T06:57:22.758Z,995.20
2018-01-04T06:58:22.763Z,995.25
2018-01-04T06:59:22.758Z,995.26
2018-01-04T07:00:22.763Z,995.26
2018-01-04T07:01:22.753Z,995.27
2018-01-04T07:02:22.765Z,995.25
2018-01-04T07:03:22.753Z,995.24
2018-01-04T07:04:22.752Z,995.18
2018-01-04T07:05:22.749Z,995.17
2018-01-04T07:06:22.750Z,995.17
2018-01-04T07:07:22.752Z,995.20
2018-01-04T07:08:22.739Z,995.22
2018-01-04T07:09:22.752Z,995.20
2018-01-04T07:10:22.744Z,995.19
2018-01-04T07:11:22.757Z,995.18
2018-01-04T07:12:22.740Z,995.18
2018-01-04T07:13:22.747Z,995.17
2018-01-04T07:14:22.741Z,995.23
2018-01-04T07:15:22.758Z,995.21
2018-01-04T07:16:22.742Z,995.20
2018-01-04T07:17:22.736Z,995.19
2018-01-04T07:18:22.732Z,995.23
2018-01-04T07:19:22.732Z,995.21
2018-01-04T07:20:22.731Z,995.25
2018-01-04T07:21:22.726Z,995.22
2018-01-04T07:22:22.720Z,995.24
2018-01-04T07:23:22.738Z,995.21
2018-01-04T07:24:22.732Z,995.17
2018-01-04T07:25:22.722Z,995.19
2018-01-04T07:26:22.730Z,995.12
2018-01-04T07:27:22.737Z,995.17
2018-01-04T07:28:22.718Z,995.23
2018-01-04T07:29:22.719Z,995.28
2018-01-04T07:30:22.728Z,995.32
2018-01-04T07:31:22.718Z,995.30
2018-01-04T07:32:22.719Z,995.27
2018-01-04T07:33:22.715Z,995.27
2018-01-04T07:34:22.713Z,995.24
2018-01-04T07:35:22.710Z,995.25
2018-01-04T07:36:22.719Z,995.20
2018-01-04T07:37:22.713Z,995.23
2018-01-04T07:38:22.705Z,995.17
2018-01-04T07:39:22.698Z,995.18
2018-01-04T07:40:22.711Z,995.24
2018-01-04T07:41:22.700Z,995.23
2018-01-04T07:42:22.708Z,995.25
2018-01-04T07:43:22.701Z,995.18
2018-01-04T07:44:22.703Z,995.15
2018-01-04T07:45:22.698Z,995.17
2018-01-04T07:46:22.705Z,995.18
2018-01-04T07:47:22.689Z,995.23
2018-01-04T07:48:22.709Z,995.22
2018-01-04T07:49:22.704Z,995.24
2018-01-04T07:50:22.699Z,995.27
2018-01-04T07:51:22.693Z,995.29
2018-01-04T07:52:22.700Z,995.29
2018-01-04T07:53:22.684Z,995.30
2018-01-04T07:54:22.686Z,995.31
2018-01-04T07:55:22.684Z,995.26
2018-01-04T07:56:22.685Z,995.27
2018-01-04T07:57:22.684Z,995.26
2018-01-04T07:58:22.685Z,995.24
2018-01-04T07:59:22.687Z,995.25
2018-01-04T08:00:22.698Z,995.28
2018-01-04T08:01:22.676Z,995.35
2018-01-04T08:02:22.674Z,995.36
2018-01-04T08:03:22.671Z,995.32
2018-01-04T08:04:22.670Z,995.34
2018-01-04T08:05:22.664Z,995.35
2018-01-04T08:06:22.680Z,995.33
2018-01-04T08:07:22.669Z,995.28
2018-01-04T08:08:22.672Z,995.31
2018-01-04T08:09:22.671Z,995.29
2018-01-04T08:10:22.671Z,995.29
2018-01-04T08:11:22.669Z,995.27
2018-01-04T08:12:22.668Z,995.29
2018-01-04T08:13:22.659Z,995.29
2018-01-04T08:14:22.666Z,995.25
2018-01-04T08:15:22.661Z,995.28
2018-01-04T08:16:22.664Z,995.23
2018-01-04T08:17:22.661Z,995.24
2018-01-04T08:18:22.656Z,995.26
2018-01-04T08:19:22.663Z,995.24
2018-01-04T08:20:22.664Z,995.31
2018-01-04T08:21:22.640Z,995.24
2018-01-04T08:22:22.646Z,995.25
2018-01-04T08:23:22.649Z,995.20
2018-01-04T08:24:22.668Z,995.24
2018-01-04T08:25:22.650Z,995.19
2018-01-04T08:26:22.646Z,995.16
2018-01-04T08:27:22.636Z,995.16
2018-01-04T08:28:22.640Z,995.19
2018-01-04T08:29:22.636Z,995.14
2018-01-04T08:30:22.638Z,995.14
2018-01-04T08:31:22.642Z,995.11
2018-01-04T08:32:22.635Z,995.11
2018-01-04T08:33:22.631Z,995.07
2018-01-04T08:34:22.656Z,995.12
2018-01-04T08:35:22.631Z,995.12
2018-01-04T08:36:22.630Z,995.10
2018-01-04T08:37:22.633Z,995.08
2018-01-04T08:38:22.626Z,995.08
2018-01-04T08:39:22.649Z,995.10
2018-01-04T08:40:22.632Z,995.04
2018-01-04T08:41:22.626Z,995.07
2018-01-04T08:42:22.619Z,995.02
2018-01-04T08:43:22.617Z,994.98
2018-01-04T08:44:22.624Z,994.97
2018-01-04T08:45:22.629Z,994.96
2018-01-04T08:46:22.622Z,994.98
2018-01-04T08:47:22.626Z,994.90
2018-01-04T08:48:22.623Z,994.87
2018-01-04T08:49:22.619Z,994.90
2018-01-04T08:50:22.612Z,994.84
2018-01-04T08:51:22.602Z,994.85
2018-01-04T08:52:22.624Z,994.83
2018-01-04T08:53:22.621Z,994.81
2018-01-04T08:54:22.611Z,994.83
2018-01-04T08:55:22.595Z,994.81
2018-01-04T08:56:22.612Z,994.82
2018-01-04T08:57:22.597Z,994.76
2018-01-04T08:58:22.617Z,994.73
2018-01-04T08:59:22.594Z,994.72
2018-01-04T09:00:22.594Z,994.63
2018-01-04T09:01:22.585Z,994.62
2018-01-04T09:02:22.599Z,994.60
2018-01-04T09:03:22.589Z,994.64
2018-01-04T09:04:22.592Z,994.63
2018-01-04T09:05:22.591Z,994.62
2018-01-04T09:06:22.602Z,994.61
2018-01-04T09:07:22.612Z,994.60
2018-01-04T09:08:22.589Z,994.63
2018-01-04T09:09:22.591Z,994.59
2018-01-04T09:10:22.585Z,994.57
2018-01-04T09:11:22.581Z,994.57
2018-01-04T09:12:22.576Z,994.59
2018-01-04T09:13:22.575Z,994.53
2018-01-04T09:14:22.590Z,994.54
2018-01-04T09:15:22.572Z,994.54
2018-01-04T09:16:22.574Z,994.58
2018-01-04T09:17:22.577Z,994.59
2018-01-04T09:18:22.565Z,994.57
2018-01-04T09:19:22.586Z,994.55
2018-01-04T09:20:22.571Z,994.49
2018-01-04T09:21:22.572Z,994.44
2018-01-04T09:22:22.561Z,994.43
2018-01-04T09:23:22.567Z,994.40
2018-01-04T09:24:22.563Z,994.43
2018-01-04T09:25:22.564Z,994.40
2018-01-04T09:26:22.570Z,994.39
2018-01-04T09:27:22.568Z,994.38
2018-01-04T09:28:22.567Z,994.38
2018-01-04T09:29:22.565Z,994.35
2018-01-04T09:30:22.562Z,994.33
2018-01-04T09:31:22.558Z,994.34
2018-01-04T09:32:22.552Z,994.34
2018-01-04T09:33:22.556Z,994.33
2018-01-04T09:34:22.553Z,994.37
2018-01-04T09:35:22.572Z,994.40
2018-01-04T09:36:22.557Z,994.41
2018-01-04T09:37:22.557Z,994.32
2018-01-04T09:38:22.548Z,994.37
2018-01-04T09:39:22.547Z,994.35
2018-01-04T09:40:22.540Z,994.31
2018-01-04T09:41:22.547Z,994.30
2018-01-04T09:42:22.539Z,994.26
2018-01-04T09:43:22.528Z,994.20
2018-01-04T09:44:22.527Z,994.18
2018-01-04T09:45:22.532Z,994.18
2018-01-04T09:46:22.531Z,994.19
2018-01-04T09:47:22.530Z,994.16
2018-01-04T09:48:22.532Z,994.12
2018-01-04T09:49:22.526Z,994.19
2018-01-04T09:50:22.517Z,994.22
2018-01-04T09:51:22.531Z,994.17
2018-01-04T09:52:22.513Z,994.16
2018-01-04T09:53:22.525Z,994.16
2018-01-04T09:54:22.522Z,994.19
2018-01-04T09:55:22.530Z,994.21
2018-01-04T09:56:22.521Z,994.18
2018-01-04T09:57:22.510Z,994.17
2018-01-04T09:58:22.511Z,994.13
2018-01-04T09:59:22.508Z,994.09
2018-01-04T10:00:22.514Z,994.08
2018-01-04T10:01:22.506Z,994.07
2018-01-04T10:02:22.513Z,994.06
2018-01-04T10:03:22.504Z,994.02
2018-01-04T10:04:22.505Z,993.98
2018-01-04T10:05:22.510Z,993.95
2018-01-04T10:06:22.498Z,994.00
2018-01-04T10:07:22.497Z,994.02
2018-01-04T10:08:22.502Z,994.06
2018-01-04T10:09:22.497Z,994.01
2018-01-04T10:10:22.514Z,993.99
2018-01-04T10:11:22.498Z,993.98
2018-01-04T10:12:22.502Z,993.94
2018-01-04T10:13:22.494Z,993.90
2018-01-04T10:14:22.498Z,993.88
2018-01-04T10:15:22.489Z,993.88
2018-01-04T10:16:22.488Z,993.89
2018-01-04T10:17:22.483Z,993.84
2018-01-04T10:18:22.487Z,993.84
2018-01-04T10:19:22.483Z,993.90
2018-01-04T10:20:22.481Z,993.88
2018-01-04T10:21:22.473Z,993.88
2018-01-04T10:22:22.493Z,993.90
2018-01-04T10:23:22.481Z,993.87
2018-01-04T10:24:22.482Z,993.82
2018-01-04T10:25:22.477Z,993.74
2018-01-04T10:26:22.478Z,993.69
2018-01-04T10:27:22.472Z,993.67
2018-01-04T10:28:22.476Z,993.68
2018-01-04T10:29:22.473Z,993.67
2018-01-04T10:30:22.474Z,993.65
2018-01-04T10:31:22.481Z,993.63
2018-01-04T10:32:22.460Z,993.66
2018-01-04T10:33:22.475Z,993.58
2018-01-04T10:34:22.452Z,993.56
2018-01-04T10:35:22.453Z,993.45
2018-01-04T10:36:22.460Z,993.39
2018-01-04T10:37:22.492Z,993.36
2018-01-04T10:38:22.455Z,993.37
2018-01-04T10:39:22.464Z,993.39
2018-01-04T10:40:22.455Z,993.35
2018-01-04T10:41:22.452Z,993.27
2018-01-04T10:42:22.455Z,993.23
2018-01-04T10:43:22.452Z,993.17
2018-01-04T10:44:22.441Z,993.15
2018-01-04T10:45:22.447Z,993.09
2018-01-04T10:46:22.448Z,993.06
2018-01-04T10:47:22.457Z,993.05
2018-01-04T10:48:22.444Z,993.01
2018-01-04T10:49:22.446Z,993.00
2018-01-04T10:50:22.433Z,993.04
2018-01-04T10:51:22.443Z,993.04
2018-01-04T10:52:22.428Z,993.07
2018-01-04T10:53:22.433Z,993.00
2018-01-04T10:54:22.434Z,992.98
2018-01-04T10:55:22.430Z,992.89
2018-01-04T10:56:22.422Z,992.92
2018-01-04T10:57:22.428Z,992.87
2018-01-04T10:58:22.421Z,992.84
2018-01-04T10:59:22.427Z,992.83
2018-01-04T11:00:22.422Z,992.81
2018-01-04T11:01:22.426Z,992.80
2018-01-04T11:02:22.420Z,992.79
2018-01-04T11:03:22.411Z,992.73
2018-01-04T11:04:22.428Z,992.69
2018-01-04T11:05:22.422Z,992.70
2018-01-04T11:06:22.417Z,992.69
2018-01-04T11:07:22.414Z,992.70
2018-01-04T11:08:22.422Z,992.70
2018-01-04T11:09:22.426Z,992.70
2018-01-04T11:10:22.410Z,992.69
2018-01-04T11:11:22.400Z,992.69
2018-01-04T11:12:22.399Z,992.66
2018-01-04T11:13:22.405Z,992.66
2018-01-04T11:14:22.404Z,992.65
2018-01-04T11:15:22.410Z,992.64
2018-01-04T11:16:22.409Z,992.64
2018-01-04T11:17:22.408Z,992.62
2018-01-04T11:18:22.400Z,992.60
2018-01-04T11:19:22.391Z,992.57
2018-01-04T11:20:22.385Z,992.53
2018-01-04T11:21:22.384Z,992.47
2018-01-04T11:22:22.392Z,992.50
2018-01-04T11:23:22.394Z,992.48
2018-01-04T11:24:22.388Z,992.46
2018-01-04T11:25:22.382Z,992.44
2018-01-04T11:26:22.395Z,992.38
2018-01-04T11:27:22.374Z,992.38
2018-01-04T11:28:22.378Z,992.31
2018-01-04T11:29:22.379Z,992.23
2018-01-04T11:30:22.380Z,992.18
2018-01-04T11:31:22.388Z,992.13
2018-01-04T11:32:22.382Z,992.12
2018-01-04T11:33:22.373Z,992.08
2018-01-04T11:34:22.368Z,992.08
2018-01-04T11:35:22.365Z,992.05
2018-01-04T11:36:22.356Z,992.03
2018-01-04T11:37:22.363Z,992.01
2018-01-04T11:38:22.364Z,991.96
2018-01-04T11:39:22.366Z,991.94
2018-01-04T11:40:22.356Z,991.88
2018-01-04T11:41:22.353Z,991.87
2018-01-04T11:42:22.364Z,991.83
2018-01-04T11:43:22.355Z,991.80
2018-01-04T11:44:22.354Z,991.71
2018-01-04T11:45:22.351Z,991.71
2018-01-04T11:46:22.354Z,991.65
2018-01-04T11:47:22.351Z,991.55
2018-01-04T11:48:22.355Z,991.54
2018-01-04T11:49:22.349Z,991.48
2018-01-04T11:50:22.349Z,991.56
2018-01-04T11:51:22.340Z,991.55
2018-01-04T11:52:22.369Z,991.51
2018-01-04T11:53:22.336Z,991.50
2018-01-04T11:54:22.329Z,991.45
2018-01-04T11:55:22.336Z,991.41
2018-01-04T11:56:22.344Z,991.35
2018-01-04T11:57:22.342Z,991.35
2018-01-04T11:58:22.367Z,991.41
2018-01-04T11:59:22.329Z,991.41
2018-01-04T12:00:22.324Z,991.34
2018-01-04T12:01:22.330Z,991.26
2018-01-04T12:02:22.347Z,991.25
2018-01-04T12:03:22.329Z,991.21
2018-01-04T12:04:22.345Z,991.12
2018-01-04T12:05:22.320Z,991.12
2018-01-04T12:06:22.316Z,991.14
2018-01-04T12:07:22.314Z,991.15
2018-01-04T12:08:22.316Z,991.08
2018-01-04T12:09:22.305Z,991.07
2018-01-04T12:10:22.309Z,991.10
2018-01-04T12:11:22.320Z,991.08
2018-01-04T12:12:22.314Z,991.02
2018-01-04T12:13:22.308Z,990.96
2018-01-04T12:14:22.305Z,991.02
2018-01-04T12:15:22.304Z,990.99
2018-01-04T12:16:22.322Z,990.92
2018-01-04T12:17:22.309Z,990.86
2018-01-04T12:18:22.301Z,990.79
2018-01-04T12:19:22.310Z,990.75
2018-01-04T12:20:22.294Z,990.69
2018-01-04T12:21:22.285Z,990.62
2018-01-04T12:22:22.302Z,990.58
2018-01-04T12:23:22.295Z,990.59
2018-01-04T12:24:22.300Z,990.52
2018-01-04T12:25:22.298Z,990.52
2018-01-04T12:26:22.279Z,990.53
2018-01-04T12:27:22.290Z,990.48
2018-01-04T12:28:22.290Z,990.51